sensor_id;sensor_type;location;lat;lon;timestamp;pressure;altitude;pressure_sealevel;temperature;humidity
84356;BME280;74539;43.518;1.504;2024-03-17T00:00:43;100284.50;;;20.35;46.31
84356;BME280;74539;43.518;1.504;2024-03-17T00:03:08;100288.34;;;20.34;46.28
84356;BME280;74539;43.518;1.504;2024-03-17T00:05:37;100286.72;;;20.33;46.15
84356;BME280;74539;43.518;1.504;2024-03-17T00:08:04;100294.06;;;20.32;46.07
84356;BME280;74539;43.518;1.504;2024-03-17T00:10:33;100289.75;;;20.31;46.62
84356;BME280;74539;43.518;1.504;2024-03-17T00:12:59;100292.47;;;20.31;46.60
84356;BME280;74539;43.518;1.504;2024-03-17T00:15:26;100288.16;;;20.30;46.98
84356;BME280;74539;43.518;1.504;2024-03-17T00:17:52;100274.06;;;20.28;46.06
84356;BME280;74539;43.518;1.504;2024-03-17T00:20:18;100274.06;;;20.28;46.56
84356;BME280;74539;43.518;1.504;2024-03-17T00:22:49;100270.25;;;20.29;46.59
84356;BME280;74539;43.518;1.504;2024-03-17T00:25:16;100268.66;;;20.28;46.34
84356;BME280;74539;43.518;1.504;2024-03-17T00:27:43;100270.56;;;20.28;46.64
84356;BME280;74539;43.518;1.504;2024-03-17T00:30:11;100261.63;;;20.27;46.70
84356;BME280;74539;43.518;1.504;2024-03-17T00:32:41;100251.38;;;20.24;46.29
84356;BME280;74539;43.518;1.504;2024-03-17T00:35:08;100251.06;;;20.26;45.79
84356;BME280;74539;43.518;1.504;2024-03-17T00:37:35;100247.53;;;20.25;46.65
84356;BME280;74539;43.518;1.504;2024-03-17T00:40:02;100240.53;;;20.24;45.83
84356;BME280;74539;43.518;1.504;2024-03-17T00:42:28;100250.25;;;20.25;46.12
84356;BME280;74539;43.518;1.504;2024-03-17T00:44:54;100241.94;;;20.22;46.94
84356;BME280;74539;43.518;1.504;2024-03-17T00:47:20;100248.16;;;20.22;46.31
84356;BME280;74539;43.518;1.504;2024-03-17T00:49:45;100235.72;;;20.21;46.52
84356;BME280;74539;43.518;1.504;2024-03-17T00:52:11;100241.13;;;20.21;46.45
84356;BME280;74539;43.518;1.504;2024-03-17T00:54:37;100233.28;;;20.20;46.55
84356;BME280;74539;43.518;1.504;2024-03-17T00:57:02;100242.22;;;20.20;45.80
84356;BME280;74539;43.518;1.504;2024-03-17T00:59:28;100234.09;;;20.20;46.29
84356;BME280;74539;43.518;1.504;2024-03-17T01:01:53;100230.06;;;20.18;46.48
84356;BME280;74539;43.518;1.504;2024-03-17T01:04:19;100230.88;;;20.18;46.63
84356;BME280;74539;43.518;1.504;2024-03-17T01:06:45;100244.44;;;20.18;47.02
84356;BME280;74539;43.518;1.504;2024-03-17T01:09:11;100229.59;;;20.16;46.03
84356;BME280;74539;43.518;1.504;2024-03-17T01:11:37;100223.03;;;20.17;46.28
84356;BME280;74539;43.518;1.504;2024-03-17T01:14:04;100217.09;;;20.14;46.49
84356;BME280;74539;43.518;1.504;2024-03-17T01:16:30;100218.72;;;20.16;47.05
84356;BME280;74539;43.518;1.504;2024-03-17T01:18:55;100210.88;;;20.14;46.48
84356;BME280;74539;43.518;1.504;2024-03-17T01:21:22;100201.16;;;20.13;46.13
84356;BME280;74539;43.518;1.504;2024-03-17T01:23:48;100193.03;;;20.13;45.89
84356;BME280;74539;43.518;1.504;2024-03-17T01:26:15;100195.72;;;20.13;46.29
84356;BME280;74539;43.518;1.504;2024-03-17T01:28:40;100207.66;;;20.12;46.21
84356;BME280;74539;43.518;1.504;2024-03-17T01:31:06;100205.56;;;20.09;46.63
84356;BME280;74539;43.518;1.504;2024-03-17T01:33:32;100205.28;;;20.10;46.39
84356;BME280;74539;43.518;1.504;2024-03-17T01:35:58;100200.13;;;20.09;45.91
84356;BME280;74539;43.518;1.504;2024-03-17T01:38:24;100192.59;;;20.06;46.64
84356;BME280;74539;43.518;1.504;2024-03-17T01:40:49;100203.69;;;20.09;46.12
84356;BME280;74539;43.518;1.504;2024-03-17T01:43:15;100200.13;;;20.09;46.52
84356;BME280;74539;43.518;1.504;2024-03-17T01:45:41;100198.53;;;20.08;46.13
84356;BME280;74539;43.518;1.504;2024-03-17T01:48:14;100195.84;;;20.08;46.14
84356;BME280;74539;43.518;1.504;2024-03-17T01:50:42;100195.31;;;20.06;46.67
84356;BME280;74539;43.518;1.504;2024-03-17T01:53:11;100206.16;;;20.06;46.41
84356;BME280;74539;43.518;1.504;2024-03-17T01:55:40;100200.75;;;20.06;46.15
84356;BME280;74539;43.518;1.504;2024-03-17T01:58:07;100206.16;;;20.06;46.60
84356;BME280;74539;43.518;1.504;2024-03-17T02:00:34;100188.91;;;20.02;45.95
84356;BME280;74539;43.518;1.504;2024-03-17T02:03:05;100185.91;;;20.03;46.49
84356;BME280;74539;43.518;1.504;2024-03-17T02:05:32;100190.50;;;20.03;46.50
84356;BME280;74539;43.518;1.504;2024-03-17T02:07:59;100188.91;;;20.02;46.25
84356;BME280;74539;43.518;1.504;2024-03-17T02:10:25;100185.41;;;20.01;46.71
84356;BME280;74539;43.518;1.504;2024-03-17T02:12:51;100181.91;;;20.01;46.35
84356;BME280;74539;43.518;1.504;2024-03-17T02:15:17;100181.91;;;20.01;46.50
84356;BME280;74539;43.518;1.504;2024-03-17T02:17:43;100180.25;;;20.00;46.05
84356;BME280;74539;43.518;1.504;2024-03-17T02:20:09;100175.97;;;19.99;46.07
84356;BME280;74539;43.518;1.504;2024-03-17T02:22:39;100170.53;;;19.99;45.82
84356;BME280;74539;43.518;1.504;2024-03-17T02:25:05;100164.59;;;19.97;46.86
84356;BME280;74539;43.518;1.504;2024-03-17T02:27:34;100156.47;;;19.97;46.01
84356;BME280;74539;43.518;1.504;2024-03-17T02:30:00;100155.38;;;19.98;46.17
84356;BME280;74539;43.518;1.504;2024-03-17T02:32:26;100150.25;;;19.96;45.76
84356;BME280;74539;43.518;1.504;2024-03-17T02:34:53;100150.56;;;19.95;46.16
84356;BME280;74539;43.518;1.504;2024-03-17T02:37:18;100139.72;;;19.95;46.26
84356;BME280;74539;43.518;1.504;2024-03-17T02:39:44;100133.50;;;19.94;46.60
84356;BME280;74539;43.518;1.504;2024-03-17T02:42:10;100124.06;;;19.92;46.29
84356;BME280;74539;43.518;1.504;2024-03-17T02:44:38;100121.81;;;19.94;46.52
84356;BME280;74539;43.518;1.504;2024-03-17T02:47:06;100127.84;;;19.90;45.71
84356;BME280;74539;43.518;1.504;2024-03-17T02:49:36;100127.84;;;19.90;45.98
84356;BME280;74539;43.518;1.504;2024-03-17T02:52:15;100127.38;;;19.88;45.74
84356;BME280;74539;43.518;1.504;2024-03-17T02:54:40;100131.19;;;19.87;45.86
84356;BME280;74539;43.518;1.504;2024-03-17T02:57:06;100133.59;;;19.89;45.94
84356;BME280;74539;43.518;1.504;2024-03-17T02:59:33;100132.00;;;19.88;46.42
84356;BME280;74539;43.518;1.504;2024-03-17T03:01:59;100136.59;;;19.87;45.92
84356;BME280;74539;43.518;1.504;2024-03-17T03:04:25;100138.84;;;19.85;46.42
84356;BME280;74539;43.518;1.504;2024-03-17T03:06:51;100136.91;;;19.86;45.91
84356;BME280;74539;43.518;1.504;2024-03-17T03:09:17;100129.06;;;19.84;46.67
84356;BME280;74539;43.518;1.504;2024-03-17T03:11:51;100130.72;;;19.85;46.01
84356;BME280;74539;43.518;1.504;2024-03-17T03:14:17;100129.06;;;19.84;46.69
84356;BME280;74539;43.518;1.504;2024-03-17T03:16:42;100123.47;;;19.81;46.28
84356;BME280;74539;43.518;1.504;2024-03-17T03:19:09;100129.69;;;19.81;46.17
84356;BME280;74539;43.518;1.504;2024-03-17T03:21:35;100128.09;;;19.80;46.50
84356;BME280;74539;43.518;1.504;2024-03-17T03:24:01;100129.69;;;19.81;46.00
84356;BME280;74539;43.518;1.504;2024-03-17T03:26:27;100128.69;;;19.77;46.08
84356;BME280;74539;43.518;1.504;2024-03-17T03:28:53;100131.91;;;19.79;46.21
84356;BME280;74539;43.518;1.504;2024-03-17T03:31:20;100135.72;;;19.78;46.19
84356;BME280;74539;43.518;1.504;2024-03-17T03:33:47;100127.59;;;19.78;45.61
84356;BME280;74539;43.518;1.504;2024-03-17T03:36:14;100131.41;;;19.77;45.97
84356;BME280;74539;43.518;1.504;2024-03-17T03:38:40;100134.13;;;19.77;45.78
84356;BME280;74539;43.518;1.504;2024-03-17T03:41:15;100128.19;;;19.75;45.80
84356;BME280;74539;43.518;1.504;2024-03-17T03:43:42;100127.91;;;19.77;45.86
84356;BME280;74539;43.518;1.504;2024-03-17T03:46:08;100125.47;;;19.75;46.54
84356;BME280;74539;43.518;1.504;2024-03-17T03:48:34;100120.38;;;19.74;46.60
84356;BME280;74539;43.518;1.504;2024-03-17T03:51:06;100123.88;;;19.74;46.68
84356;BME280;74539;43.518;1.504;2024-03-17T03:53:33;100126.59;;;19.74;45.62
84356;BME280;74539;43.518;1.504;2024-03-17T03:56:00;100139.34;;;19.74;46.54
84356;BME280;74539;43.518;1.504;2024-03-17T03:58:29;100134.22;;;19.72;46.60
84356;BME280;74539;43.518;1.504;2024-03-17T04:00:55;100126.88;;;19.73;45.92
84356;BME280;74539;43.518;1.504;2024-03-17T04:03:22;100125.28;;;19.72;46.31
84356;BME280;74539;43.518;1.504;2024-03-17T04:05:48;100128.81;;;19.72;46.14
84356;BME280;74539;43.518;1.504;2024-03-17T04:08:13;100118.56;;;19.69;46.05
84356;BME280;74539;43.518;1.504;2024-03-17T04:10:39;100124.50;;;19.71;46.05
84356;BME280;74539;43.518;1.504;2024-03-17T04:13:05;100128.31;;;19.70;46.33
84356;BME280;74539;43.518;1.504;2024-03-17T04:15:31;100116.19;;;19.67;46.60
84356;BME280;74539;43.518;1.504;2024-03-17T04:17:56;100118.56;;;19.69;45.49
84356;BME280;74539;43.518;1.504;2024-03-17T04:20:22;100124.31;;;19.67;46.24
84356;BME280;74539;43.518;1.504;2024-03-17T04:22:47;100124.31;;;19.67;45.58
84356;BME280;74539;43.518;1.504;2024-03-17T04:25:14;100124.59;;;19.66;46.46
84356;BME280;74539;43.518;1.504;2024-03-17T04:27:40;100121.09;;;19.65;45.68
84356;BME280;74539;43.518;1.504;2024-03-17T04:30:07;100123.78;;;19.65;46.29
84356;BME280;74539;43.518;1.504;2024-03-17T04:32:33;100121.88;;;19.66;46.19
84356;BME280;74539;43.518;1.504;2024-03-17T04:34:59;100122.19;;;19.64;45.48
84356;BME280;74539;43.518;1.504;2024-03-17T04:37:25;100124.91;;;19.64;46.02
84356;BME280;74539;43.518;1.504;2024-03-17T04:39:51;100123.25;;;19.63;46.62
84356;BME280;74539;43.518;1.504;2024-03-17T04:42:17;100123.25;;;19.63;46.57
84356;BME280;74539;43.518;1.504;2024-03-17T04:44:44;100117.84;;;19.63;45.51
84356;BME280;74539;43.518;1.504;2024-03-17T04:47:11;100115.44;;;19.62;46.68
84356;BME280;74539;43.518;1.504;2024-03-17T04:49:41;100115.72;;;19.60;46.77
84356;BME280;74539;43.518;1.504;2024-03-17T04:52:11;100122.78;;;19.61;46.25
84356;BME280;74539;43.518;1.504;2024-03-17T04:54:37;100134.72;;;19.60;45.87
84356;BME280;74539;43.518;1.504;2024-03-17T04:57:03;100139.13;;;19.56;46.66
84356;BME280;74539;43.518;1.504;2024-03-17T04:59:29;100133.91;;;19.60;46.02
84356;BME280;74539;43.518;1.504;2024-03-17T05:01:55;100156.69;;;19.59;45.64
84356;BME280;74539;43.518;1.504;2024-03-17T05:04:21;100150.78;;;19.57;46.11
84356;BME280;74539;43.518;1.504;2024-03-17T05:06:48;100160.00;;;19.56;46.07
84356;BME280;74539;43.518;1.504;2024-03-17T05:09:18;100165.44;;;19.56;46.09
84356;BME280;74539;43.518;1.504;2024-03-17T05:11:45;100163.84;;;19.55;46.18
84356;BME280;74539;43.518;1.504;2024-03-17T05:14:11;100173.56;;;19.56;46.33
84356;BME280;74539;43.518;1.504;2024-03-17T05:16:37;100167.63;;;19.54;46.77
84356;BME280;74539;43.518;1.504;2024-03-17T05:19:02;100172.25;;;19.53;46.66
84356;BME280;74539;43.518;1.504;2024-03-17T05:21:29;100182.28;;;19.53;45.57
84356;BME280;74539;43.518;1.504;2024-03-17T05:23:56;100190.44;;;19.53;46.44
84356;BME280;74539;43.518;1.504;2024-03-17T05:26:25;100188.53;;;19.53;46.36
84356;BME280;74539;43.518;1.504;2024-03-17T05:28:51;100185.00;;;19.53;45.88
84356;BME280;74539;43.518;1.504;2024-03-17T05:31:16;100186.91;;;19.52;45.53
84356;BME280;74539;43.518;1.504;2024-03-17T05:33:43;100188.84;;;19.52;46.40
84356;BME280;74539;43.518;1.504;2024-03-17T05:36:09;100185.41;;;19.46;45.70
84356;BME280;74539;43.518;1.504;2024-03-17T05:38:35;100189.13;;;19.50;46.67
84356;BME280;74539;43.518;1.504;2024-03-17T05:41:03;100188.31;;;19.50;46.38
84356;BME280;74539;43.518;1.504;2024-03-17T05:43:31;100204.59;;;19.50;46.57
84356;BME280;74539;43.518;1.504;2024-03-17T05:45:59;100201.06;;;19.49;46.41
84356;BME280;74539;43.518;1.504;2024-03-17T05:48:26;100195.94;;;19.48;45.99
84356;BME280;74539;43.518;1.504;2024-03-17T05:50:52;100205.97;;;19.47;46.20
84356;BME280;74539;43.518;1.504;2024-03-17T05:53:18;100210.59;;;19.47;45.47
84356;BME280;74539;43.518;1.504;2024-03-17T05:55:44;100205.19;;;19.47;46.05
84356;BME280;74539;43.518;1.504;2024-03-17T05:58:10;100207.38;;;19.44;46.70
84356;BME280;74539;43.518;1.504;2024-03-17T06:00:38;100213.59;;;19.45;45.78
84356;BME280;74539;43.518;1.504;2024-03-17T06:03:04;100219.00;;;19.45;45.62
84356;BME280;74539;43.518;1.504;2024-03-17T06:05:39;100223.63;;;19.44;46.37
84356;BME280;74539;43.518;1.504;2024-03-17T06:08:06;100216.63;;;19.43;46.04
84356;BME280;74539;43.518;1.504;2024-03-17T06:10:35;100213.91;;;19.43;46.29
84356;BME280;74539;43.518;1.504;2024-03-17T06:13:02;100205.25;;;19.41;45.88
84356;BME280;74539;43.518;1.504;2024-03-17T06:15:29;100210.69;;;19.41;45.86
84356;BME280;74539;43.518;1.504;2024-03-17T06:17:55;100215.31;;;19.41;46.24
84356;BME280;74539;43.518;1.504;2024-03-17T06:20:22;100214.00;;;19.38;46.51
84356;BME280;74539;43.518;1.504;2024-03-17T06:22:49;100225.34;;;19.40;45.86
84356;BME280;74539;43.518;1.504;2024-03-17T06:25:15;100218.81;;;19.41;45.99
84356;BME280;74539;43.518;1.504;2024-03-17T06:27:40;100215.59;;;19.39;45.53
84356;BME280;74539;43.518;1.504;2024-03-17T06:30:13;100215.59;;;19.39;46.43
84356;BME280;74539;43.518;1.504;2024-03-17T06:32:46;100212.09;;;19.39;46.31
84356;BME280;74539;43.518;1.504;2024-03-17T06:35:12;100211.28;;;19.38;45.63
84356;BME280;74539;43.518;1.504;2024-03-17T06:37:41;100206.97;;;19.37;45.49
84356;BME280;74539;43.518;1.504;2024-03-17T06:40:12;100206.97;;;19.37;46.76
84356;BME280;74539;43.518;1.504;2024-03-17T06:42:38;100218.91;;;19.36;46.66
84356;BME280;74539;43.518;1.504;2024-03-17T06:45:05;100204.88;;;19.34;46.31
84356;BME280;74539;43.518;1.504;2024-03-17T06:47:34;100216.19;;;19.36;46.19
84356;BME280;74539;43.518;1.504;2024-03-17T06:50:00;100207.56;;;19.34;46.60
84356;BME280;74539;43.518;1.504;2024-03-17T06:52:26;100196.75;;;19.34;46.37
84356;BME280;74539;43.518;1.504;2024-03-17T06:54:52;100192.13;;;19.35;46.53
84356;BME280;74539;43.518;1.504;2024-03-17T06:57:17;100188.91;;;19.33;45.89
84356;BME280;74539;43.518;1.504;2024-03-17T06:59:43;100199.72;;;19.33;46.79
84356;BME280;74539;43.518;1.504;2024-03-17T07:02:10;100194.31;;;19.33;46.35
84356;BME280;74539;43.518;1.504;2024-03-17T07:04:38;100194.63;;;19.31;46.46
84356;BME280;74539;43.518;1.504;2024-03-17T07:07:03;100191.91;;;19.31;46.15
84356;BME280;74539;43.518;1.504;2024-03-17T07:09:29;100190.28;;;19.30;46.34
84356;BME280;74539;43.518;1.504;2024-03-17T07:11:54;100204.34;;;19.32;45.77
84356;BME280;74539;43.518;1.504;2024-03-17T07:14:20;100198.41;;;19.30;46.42
84356;BME280;74539;43.518;1.504;2024-03-17T07:16:46;100213.59;;;19.31;46.00
84356;BME280;74539;43.518;1.504;2024-03-17T07:19:11;100222.81;;;19.30;45.64
84356;BME280;74539;43.518;1.504;2024-03-17T07:21:37;100219.00;;;19.31;45.38
84356;BME280;74539;43.518;1.504;2024-03-17T07:24:03;100236.84;;;19.32;45.61
84356;BME280;74539;43.518;1.504;2024-03-17T07:26:30;100227.63;;;19.33;45.60
84356;BME280;74539;43.518;1.504;2024-03-17T07:28:56;100240.09;;;19.34;45.60
84356;BME280;74539;43.518;1.504;2024-03-17T07:31:22;100237.84;;;19.36;45.82
84356;BME280;74539;43.518;1.504;2024-03-17T07:33:47;100232.44;;;19.36;45.86
84356;BME280;74539;43.518;1.504;2024-03-17T07:36:14;100231.03;;;19.39;46.04
84356;BME280;74539;43.518;1.504;2024-03-17T07:38:40;100230.25;;;19.38;45.19
84356;BME280;74539;43.518;1.504;2024-03-17T07:41:07;100224.84;;;19.38;46.20
84356;BME280;74539;43.518;1.504;2024-03-17T07:43:37;100211.78;;;19.40;45.78
84356;BME280;74539;43.518;1.504;2024-03-17T07:46:08;100217.22;;;19.40;45.57
84356;BME280;74539;43.518;1.504;2024-03-17T07:48:36;100218.81;;;19.41;46.09
84356;BME280;74539;43.518;1.504;2024-03-17T07:51:05;100231.25;;;19.42;46.33
84356;BME280;74539;43.518;1.504;2024-03-17T07:53:35;100231.25;;;19.42;45.71
84356;BME280;74539;43.518;1.504;2024-03-17T07:56:11;100245.31;;;19.44;45.99
84356;BME280;74539;43.518;1.504;2024-03-17T07:58:39;100255.06;;;19.45;45.22
84356;BME280;74539;43.518;1.504;2024-03-17T08:01:06;100246.09;;;19.45;45.45
84356;BME280;74539;43.518;1.504;2024-03-17T08:03:34;100252.34;;;19.45;46.33
84356;BME280;74539;43.518;1.504;2024-03-17T08:06:02;100250.13;;;19.48;46.10
84356;BME280;74539;43.518;1.504;2024-03-17T08:08:28;100260.97;;;19.48;45.50
84356;BME280;74539;43.518;1.504;2024-03-17T08:10:54;100253.63;;;19.48;46.13
84356;BME280;74539;43.518;1.504;2024-03-17T08:13:21;100251.44;;;19.50;45.78
84356;BME280;74539;43.518;1.504;2024-03-17T08:15:58;100252.75;;;19.53;45.86
84356;BME280;74539;43.518;1.504;2024-03-17T08:18:24;100259.78;;;19.54;45.52
84356;BME280;74539;43.518;1.504;2024-03-17T08:20:50;100252.97;;;19.56;46.04
84356;BME280;74539;43.518;1.504;2024-03-17T08:23:16;100256.19;;;19.58;45.29
84356;BME280;74539;43.518;1.504;2024-03-17T08:25:42;100272.63;;;19.62;45.62
84356;BME280;74539;43.518;1.504;2024-03-17T08:28:07;100266.66;;;19.65;45.72
84356;BME280;74539;43.518;1.504;2024-03-17T08:30:33;100260.13;;;19.66;45.63
84356;BME280;74539;43.518;1.504;2024-03-17T08:33:00;100252.00;;;19.66;45.92
84356;BME280;74539;43.518;1.504;2024-03-17T08:35:26;100258.44;;;19.70;45.34
84356;BME280;74539;43.518;1.504;2024-03-17T08:37:52;100247.28;;;19.72;45.79
84356;BME280;74539;43.518;1.504;2024-03-17T08:40:20;100252.09;;;19.75;45.48
84356;BME280;74539;43.518;1.504;2024-03-17T08:42:46;100258.81;;;19.77;45.75
84356;BME280;74539;43.518;1.504;2024-03-17T08:45:12;100267.16;;;19.81;46.00
84356;BME280;74539;43.518;1.504;2024-03-17T08:47:38;100268.97;;;19.85;45.36
84356;BME280;74539;43.518;1.504;2024-03-17T08:50:04;100265.97;;;19.87;45.17
84356;BME280;74539;43.518;1.504;2024-03-17T08:52:36;100260.25;;;19.88;45.67
84356;BME280;74539;43.518;1.504;2024-03-17T08:55:01;100257.41;;;19.94;45.53
84356;BME280;74539;43.518;1.504;2024-03-17T08:57:35;100256.00;;;19.96;45.59
84356;BME280;74539;43.518;1.504;2024-03-17T09:00:01;100260.81;;;19.99;46.17
84356;BME280;74539;43.518;1.504;2024-03-17T09:02:27;100261.63;;;20.00;45.74
84356;BME280;74539;43.518;1.504;2024-03-17T09:04:52;100268.88;;;20.04;46.21
84356;BME280;74539;43.518;1.504;2024-03-17T09:07:18;100256.91;;;20.05;46.06
84356;BME280;74539;43.518;1.504;2024-03-17T09:09:46;100253.91;;;20.07;45.58
84356;BME280;74539;43.518;1.504;2024-03-17T09:12:11;100263.03;;;20.11;45.65
84356;BME280;74539;43.518;1.504;2024-03-17T09:14:37;100265.13;;;20.14;45.41
84356;BME280;74539;43.518;1.504;2024-03-17T09:17:03;100257.00;;;20.14;45.34
84356;BME280;74539;43.518;1.504;2024-03-17T09:19:29;100264.25;;;20.19;45.64
84356;BME280;74539;43.518;1.504;2024-03-17T09:21:55;100258.81;;;20.19;45.61
84356;BME280;74539;43.518;1.504;2024-03-17T09:24:20;100250.38;;;20.20;45.62
84356;BME280;74539;43.518;1.504;2024-03-17T09:26:46;100259.00;;;20.22;45.90
84356;BME280;74539;43.518;1.504;2024-03-17T09:29:13;100257.28;;;20.26;45.94
84356;BME280;74539;43.518;1.504;2024-03-17T09:31:41;100248.53;;;20.29;45.75
84356;BME280;74539;43.518;1.504;2024-03-17T09:34:07;100243.31;;;20.33;46.09
84356;BME280;74539;43.518;1.504;2024-03-17T09:36:33;100238.38;;;20.35;45.48
84356;BME280;74539;43.518;1.504;2024-03-17T09:38:58;100239.69;;;20.38;45.84
84356;BME280;74539;43.518;1.504;2024-03-17T09:41:26;100242.91;;;20.40;45.35
84356;BME280;74539;43.518;1.504;2024-03-17T09:43:58;100240.66;;;20.42;45.78
84356;BME280;74539;43.518;1.504;2024-03-17T09:46:24;100240.06;;;20.45;45.59
84356;BME280;74539;43.518;1.504;2024-03-17T09:48:51;100237.84;;;20.47;46.31
84356;BME280;74539;43.518;1.504;2024-03-17T09:51:19;100236.44;;;20.49;46.00
84356;BME280;74539;43.518;1.504;2024-03-17T09:53:46;100229.63;;;20.52;46.27
84356;BME280;74539;43.518;1.504;2024-03-17T09:56:19;100238.25;;;20.54;45.11
84356;BME280;74539;43.518;1.504;2024-03-17T09:58:46;100248.50;;;20.57;45.90
84356;BME280;74539;43.518;1.504;2024-03-17T10:01:12;100253.31;;;20.60;46.39
84356;BME280;74539;43.518;1.504;2024-03-17T10:03:48;100260.84;;;20.63;45.81
84356;BME280;74539;43.518;1.504;2024-03-17T10:06:20;100259.44;;;20.66;46.06
84356;BME280;74539;43.518;1.504;2024-03-17T10:08:51;100259.94;;;20.68;45.91
84356;BME280;74539;43.518;1.504;2024-03-17T10:11:20;100266.34;;;20.72;46.08
84356;BME280;74539;43.518;1.504;2024-03-17T10:13:47;100257.13;;;20.73;46.23
84356;BME280;74539;43.518;1.504;2024-03-17T10:16:25;100251.34;;;20.74;46.76
84356;BME280;74539;43.518;1.504;2024-03-17T10:21:47;100259.41;;;20.79;46.37
84356;BME280;74539;43.518;1.504;2024-03-17T10:24:21;100255.56;;;20.80;46.76
84356;BME280;74539;43.518;1.504;2024-03-17T10:26:51;100260.38;;;20.84;46.56
84356;BME280;74539;43.518;1.504;2024-03-17T10:29:31;100257.66;;;20.84;46.94
84356;BME280;74539;43.518;1.504;2024-03-17T10:32:01;100264.06;;;20.88;46.30
84356;BME280;74539;43.518;1.504;2024-03-17T10:34:28;100251.25;;;20.79;46.61
84356;BME280;74539;43.518;1.504;2024-03-17T10:37:16;100258.84;;;20.91;46.64
84356;BME280;74539;43.518;1.504;2024-03-17T10:39:45;100255.81;;;20.93;46.19
84356;BME280;74539;43.518;1.504;2024-03-17T10:42:13;100252.47;;;20.96;46.44
84356;BME280;74539;43.518;1.504;2024-03-17T10:44:43;100251.84;;;20.99;46.23
84356;BME280;74539;43.518;1.504;2024-03-17T10:47:21;100241.50;;;21.01;46.85
84356;BME280;74539;43.518;1.504;2024-03-17T10:49:50;100244.72;;;21.03;46.63
84356;BME280;74539;43.518;1.504;2024-03-17T10:52:17;100250.63;;;21.05;46.80
84356;BME280;74539;43.518;1.504;2024-03-17T10:54:48;100261.97;;;21.07;46.92
84356;BME280;74539;43.518;1.504;2024-03-17T10:57:43;100272.22;;;21.10;46.55
84356;BME280;74539;43.518;1.504;2024-03-17T11:00:12;100270.03;;;21.12;46.84
84356;BME280;74539;43.518;1.504;2024-03-17T11:02:46;100268.91;;;21.13;46.79
84356;BME280;74539;43.518;1.504;2024-03-17T11:05:22;100275.31;;;21.17;46.99
84356;BME280;74539;43.518;1.504;2024-03-17T11:07:50;100269.25;;;21.20;46.91
84356;BME280;74539;43.518;1.504;2024-03-17T11:10:22;100265.44;;;21.21;46.96
84356;BME280;74539;43.518;1.504;2024-03-17T11:12:50;100261.28;;;21.24;47.13
84356;BME280;74539;43.518;1.504;2024-03-17T11:20:27;100271.72;;;21.31;47.15
84356;BME280;74539;43.518;1.504;2024-03-17T11:22:58;100274.91;;;21.33;47.06
84356;BME280;74539;43.518;1.504;2024-03-17T11:27:59;100266.47;;;21.34;47.30
84356;BME280;74539;43.518;1.504;2024-03-17T11:41:41;100223.28;;;21.33;46.87
84356;BME280;74539;43.518;1.504;2024-03-17T11:47:01;100225.41;;;21.36;46.49
84356;BME280;74539;43.518;1.504;2024-03-17T11:49:36;100234.66;;;21.35;46.32
84356;BME280;74539;43.518;1.504;2024-03-17T11:52:13;100238.50;;;21.34;46.82
84356;BME280;74539;43.518;1.504;2024-03-17T11:54:41;100236.88;;;21.33;46.70
84356;BME280;74539;43.518;1.504;2024-03-17T11:57:10;100233.06;;;21.34;46.59
84356;BME280;74539;43.518;1.504;2024-03-17T11:59:37;100235.44;;;21.35;46.26
84356;BME280;74539;43.518;1.504;2024-03-17T12:02:10;100217.25;;;21.36;45.98
84356;BME280;74539;43.518;1.504;2024-03-17T12:04:42;100199.94;;;21.32;45.88
84356;BME280;74539;43.518;1.504;2024-03-17T12:07:13;100201.78;;;21.36;46.05
84356;BME280;74539;43.518;1.504;2024-03-17T12:09:41;100195.22;;;21.37;45.87
84356;BME280;74539;43.518;1.504;2024-03-17T12:12:13;100188.19;;;21.36;46.49
84356;BME280;74539;43.518;1.504;2024-03-17T12:14:41;100174.84;;;21.35;46.20
84356;BME280;74539;43.518;1.504;2024-03-17T12:17:08;100173.47;;;21.37;45.59
84356;BME280;74539;43.518;1.504;2024-03-17T12:19:35;100174.25;;;21.38;46.12
84356;BME280;74539;43.518;1.504;2024-03-17T12:22:02;100164.19;;;21.38;46.39
84356;BME280;74539;43.518;1.504;2024-03-17T12:24:31;100165.00;;;21.39;45.97
84356;BME280;74539;43.518;1.504;2024-03-17T12:26:58;100167.22;;;21.37;45.91
84356;BME280;74539;43.518;1.504;2024-03-17T12:29:37;100162.28;;;21.39;45.92
84356;BME280;74539;43.518;1.504;2024-03-17T12:32:19;100159.53;;;21.39;45.97
84356;BME280;74539;43.518;1.504;2024-03-17T12:34:49;100153.66;;;21.37;45.87
84356;BME280;74539;43.518;1.504;2024-03-17T12:37:20;100160.38;;;21.39;45.79
84356;BME280;74539;43.518;1.504;2024-03-17T12:39:46;100149.81;;;21.38;46.00
84356;BME280;74539;43.518;1.504;2024-03-17T12:42:25;100147.88;;;21.38;46.34
84356;BME280;74539;43.518;1.504;2024-03-17T12:44:53;100144.88;;;21.40;46.61
84356;BME280;74539;43.518;1.504;2024-03-17T12:47:21;100138.63;;;21.39;46.56
84356;BME280;74539;43.518;1.504;2024-03-17T12:49:54;100135.91;;;21.39;46.17
84356;BME280;74539;43.518;1.504;2024-03-17T12:52:24;100133.66;;;21.41;46.02
84356;BME280;74539;43.518;1.504;2024-03-17T12:55:05;100123.13;;;21.40;46.30
84356;BME280;74539;43.518;1.504;2024-03-17T13:00:47;100117.69;;;21.40;46.28
84356;BME280;74539;43.518;1.504;2024-03-17T13:03:26;100109.84;;;21.38;46.43
84356;BME280;74539;43.518;1.504;2024-03-17T13:05:52;100112.53;;;21.38;46.54
84356;BME280;74539;43.518;1.504;2024-03-17T13:08:18;100105.19;;;21.39;46.40
84356;BME280;74539;43.518;1.504;2024-03-17T13:10:43;100112.72;;;21.42;46.39
84356;BME280;74539;43.518;1.504;2024-03-17T13:13:10;100102.97;;;21.41;46.27
84356;BME280;74539;43.518;1.504;2024-03-17T13:15:38;100097.53;;;21.41;45.89
84356;BME280;74539;43.518;1.504;2024-03-17T13:18:04;100090.16;;;21.41;46.07
84356;BME280;74539;43.518;1.504;2024-03-17T13:20:31;100089.88;;;21.43;46.19